createdAt,value
2018-06-08T00:03:07.554Z,2.50
2018-06-08T00:08:10.242Z,2.40
2018-06-08T00:13:12.862Z,2.60
2018-06-08T00:18:15.469Z,2.50
2018-06-08T00:23:18.128Z,2.63
2018-06-08T00:28:20.713Z,2.17
2018-06-08T00:33:23.302Z,2.63
2018-06-08T00:38:25.886Z,3.00
2018-06-08T00:43:28.585Z,2.80
2018-06-08T00:48:31.190Z,2.87
2018-06-08T00:53:33.781Z,3.07
2018-06-08T00:58:36.375Z,2.90
2018-06-08T01:03:38.986Z,2.50
2018-06-08T01:08:41.611Z,3.10
2018-06-08T01:13:44.203Z,3.10
2018-06-08T01:18:46.793Z,2.70
2018-06-08T01:23:49.498Z,2.80
2018-06-08T01:28:52.138Z,2.63
2018-06-08T01:33:54.714Z,3.33
2018-06-08T01:38:57.318Z,3.37
2018-06-08T01:43:59.934Z,3.10
2018-06-08T01:49:02.526Z,3.23
2018-06-08T01:54:05.221Z,3.70
2018-06-08T01:59:07.844Z,3.43
2018-06-08T02:04:10.428Z,7.97
2018-06-08T02:09:13.063Z,10.93
2018-06-08T02:14:15.647Z,16.87
2018-06-08T02:19:20.657Z,4.00
2018-06-08T02:24:23.282Z,2.57
2018-06-08T02:29:25.878Z,2.70
2018-06-08T02:34:28.555Z,3.43
2018-06-08T02:39:31.150Z,3.40
2018-06-08T02:44:33.682Z,2.87
2018-06-08T02:49:36.484Z,3.00
2018-06-08T02:54:39.081Z,2.67
2018-06-08T02:59:41.681Z,2.90
2018-06-08T03:04:44.274Z,2.47
2018-06-08T03:09:46.886Z,2.90
2018-06-08T03:14:49.479Z,2.73
2018-06-08T03:19:52.091Z,2.93
2018-06-08T03:24:54.722Z,3.40
2018-06-08T03:29:57.331Z,2.83
2018-06-08T03:34:59.944Z,2.93
2018-06-08T03:40:02.658Z,2.77
2018-06-08T03:45:05.926Z,2.10
2018-06-08T03:50:08.566Z,2.67
2018-06-08T03:55:11.181Z,2.67
2018-06-08T04:00:13.791Z,2.60
2018-06-08T04:05:16.374Z,2.73
2018-06-08T04:10:19.002Z,3.40
2018-06-08T04:15:23.871Z,2.77
2018-06-08T04:20:26.877Z,2.83
2018-06-08T04:25:29.495Z,3.10
2018-06-08T04:30:32.100Z,2.93
2018-06-08T04:35:34.699Z,3.27
2018-06-08T04:40:37.893Z,3.10
2018-06-08T04:45:40.495Z,4.40
2018-06-08T04:50:43.211Z,4.33
2018-06-08T04:55:45.895Z,3.83
2018-06-08T05:00:48.494Z,3.70
2018-06-08T05:05:51.220Z,3.97
2018-06-08T05:10:53.824Z,4.23
2018-06-08T05:15:58.698Z,5.60
2018-06-08T05:21:01.334Z,5.63
2018-06-08T05:26:03.866Z,20.80
2018-06-08T05:31:06.458Z,26.63
2018-06-08T05:36:09.210Z,19.57
2018-06-08T05:41:11.793Z,16.50
2018-06-08T05:46:14.391Z,9.90
2018-06-08T05:51:17.107Z,8.30
2018-06-08T05:56:19.710Z,10.40
2018-06-08T06:01:22.380Z,12.93
2018-06-08T06:06:24.980Z,11.87
2018-06-08T06:11:27.654Z,10.93
2018-06-08T06:16:30.270Z,10.23
2018-06-08T06:21:32.907Z,10.17
2018-06-08T06:26:35.520Z,10.60
2018-06-08T06:31:38.199Z,11.60
2018-06-08T06:36:40.842Z,10.73
2018-06-08T06:41:43.463Z,13.27
2018-06-08T06:46:46.055Z,15.73
2018-06-08T06:51:48.722Z,22.37
2018-06-08T06:56:51.318Z,15.70
2018-06-08T07:01:54.023Z,12.33
2018-06-08T07:06:56.611Z,13.00
2018-06-08T07:11:59.190Z,13.53
2018-06-08T07:17:03.062Z,13.03
2018-06-08T07:22:05.703Z,12.33
2018-06-08T07:27:09.006Z,12.57
2018-06-08T07:32:11.646Z,13.30
2018-06-08T07:37:14.279Z,13.07
2018-06-08T07:42:16.999Z,11.50
2018-06-08T07:47:19.620Z,11.50
2018-06-08T07:52:22.250Z,11.90
2018-06-08T07:57:24.855Z,12.30
2018-06-08T08:02:27.527Z,12.27
2018-06-08T08:07:30.101Z,13.50
2018-06-08T08:12:32.651Z,17.93
2018-06-08T08:17:35.216Z,20.87
2018-06-08T08:22:37.790Z,19.67
2018-06-08T08:27:40.375Z,17.23
2018-06-08T08:32:42.952Z,18.87
2018-06-08T08:37:45.538Z,19.67
2018-06-08T08:42:48.094Z,20.40
2018-06-08T08:47:50.650Z,19.17
2018-06-08T08:52:53.219Z,21.60
2018-06-08T08:57:55.794Z,20.10
2018-06-08T09:02:58.359Z,20.63
2018-06-08T09:08:00.918Z,22.27
2018-06-08T09:13:03.542Z,22.93
2018-06-08T09:18:06.146Z,21.83
2018-06-08T09:23:08.814Z,20.07
2018-06-08T09:28:11.451Z,22.63
2018-06-08T09:33:14.072Z,22.87
2018-06-08T09:38:17.384Z,23.13
2018-06-08T09:43:19.962Z,23.17
2018-06-08T09:48:22.564Z,20.43
2018-06-08T09:53:25.119Z,20.77
2018-06-08T09:58:27.698Z,20.93
2018-06-08T10:03:30.257Z,20.67
2018-06-08T10:08:32.866Z,20.83
2018-06-08T10:13:35.523Z,18.17
2018-06-08T10:18:38.130Z,18.23
2018-06-08T10:23:40.688Z,17.70
2018-06-08T10:28:43.242Z,15.70
2018-06-08T10:33:45.887Z,14.90
2018-06-08T10:38:48.475Z,13.53
2018-06-08T10:43:51.077Z,8.70
2018-06-08T10:48:53.660Z,12.73
2018-06-08T10:53:57.125Z,12.37
2018-06-08T10:58:59.835Z,9.60
2018-06-08T11:04:02.427Z,9.10
2018-06-08T11:09:08.495Z,9.20
2018-06-08T11:14:11.066Z,9.57
2018-06-08T11:19:13.627Z,9.13
2018-06-08T11:24:16.183Z,12.95
2018-06-08T11:29:18.727Z,10.68
2018-06-08T11:34:21.284Z,10.98
2018-06-08T11:39:23.881Z,12.20
2018-06-08T11:44:26.440Z,11.23
2018-06-08T11:49:29.066Z,10.13
2018-06-08T11:54:31.713Z,10.93
2018-06-08T11:59:34.304Z,10.37
2018-06-08T12:04:36.887Z,11.20
2018-06-08T12:09:39.570Z,11.07
2018-06-08T12:14:42.148Z,10.60
2018-06-08T12:19:44.758Z,9.23
2018-06-08T12:24:47.387Z,8.73
2018-06-08T12:29:50.008Z,8.60
2018-06-08T12:34:52.893Z,8.53
2018-06-08T12:39:55.511Z,7.50
2018-06-08T12:44:58.186Z,8.68
2018-06-08T12:50:00.807Z,8.05
2018-06-08T12:55:03.483Z,6.75
2018-06-08T13:00:06.980Z,8.38
2018-06-08T13:05:09.690Z,7.37
2018-06-08T13:10:12.747Z,8.45
2018-06-08T13:15:15.523Z,8.83
2018-06-08T13:20:18.187Z,8.15
2018-06-08T13:25:20.927Z,8.20
2018-06-08T13:30:23.557Z,8.83
2018-06-08T13:35:26.243Z,8.23
2018-06-08T13:40:28.883Z,8.45
2018-06-08T13:45:31.529Z,8.40
2018-06-08T13:50:34.305Z,8.67
2018-06-08T13:55:37.141Z,8.70
2018-06-08T14:00:39.852Z,5.40
2018-06-08T14:05:42.464Z,6.83
2018-06-08T14:10:45.087Z,6.90
2018-06-08T14:15:47.999Z,7.43
2018-06-08T14:20:50.616Z,9.20
2018-06-08T14:25:53.293Z,10.87
2018-06-08T14:30:55.926Z,11.10
2018-06-08T14:35:59.031Z,10.67
2018-06-08T14:41:01.893Z,9.83
2018-06-08T14:46:04.524Z,8.50
2018-06-08T14:51:07.241Z,7.37
2018-06-08T14:56:10.015Z,6.07
2018-06-08T15:01:12.639Z,6.70
2018-06-08T15:06:15.786Z,7.17
2018-06-08T15:11:18.425Z,8.90
2018-06-08T15:16:21.059Z,7.67
2018-06-08T15:21:23.683Z,7.63
2018-06-08T15:26:27.187Z,7.50
2018-06-08T15:31:29.821Z,7.00
2018-06-08T15:36:32.461Z,7.53
2018-06-08T15:41:35.108Z,6.83
2018-06-08T15:46:37.735Z,7.10
2018-06-08T15:51:40.330Z,6.83
2018-06-08T15:56:43.023Z,6.77
2018-06-08T16:01:45.719Z,8.13
2018-06-08T16:06:48.466Z,7.10
2018-06-08T16:11:51.105Z,8.83
2018-06-08T16:16:53.711Z,7.73
2018-06-08T16:21:56.308Z,7.53
2018-06-08T16:26:58.923Z,7.93
2018-06-08T16:32:01.611Z,8.27
2018-06-08T16:37:04.266Z,8.13
2018-06-08T16:42:06.880Z,7.97
2018-06-08T16:47:10.032Z,8.20
2018-06-08T16:52:12.624Z,8.27
2018-06-08T16:57:15.278Z,8.77
2018-06-08T17:02:17.900Z,8.73
2018-06-08T17:07:20.632Z,9.00
2018-06-08T17:12:23.264Z,10.03
2018-06-08T17:17:25.901Z,11.23
2018-06-08T17:22:28.640Z,10.03
2018-06-08T17:27:31.280Z,11.00
2018-06-08T17:32:33.909Z,7.40
2018-06-08T17:37:36.654Z,5.50
2018-06-08T17:42:39.290Z,5.40
2018-06-08T17:47:42.080Z,9.23
2018-06-08T17:52:44.680Z,8.07
2018-06-08T17:57:47.318Z,10.13
2018-06-08T18:02:49.919Z,7.27
2018-06-08T18:07:52.771Z,7.70
2018-06-08T18:12:55.410Z,7.20
2018-06-08T18:17:58.127Z,7.63
2018-06-08T18:23:00.683Z,8.00
2018-06-08T18:28:03.361Z,7.67
2018-06-08T18:33:06.156Z,8.43
2018-06-08T18:38:08.830Z,7.47
2018-06-08T18:43:11.464Z,6.57
2018-06-08T18:48:14.255Z,6.67
2018-06-08T18:53:16.915Z,6.40
2018-06-08T18:58:19.643Z,6.47
2018-06-08T19:03:22.273Z,5.83
2018-06-08T19:08:24.876Z,5.93
2018-06-08T19:13:27.576Z,6.83
2018-06-08T19:18:30.219Z,7.00
2018-06-08T19:23:33.133Z,7.33
2018-06-08T19:28:35.765Z,7.20
2018-06-08T19:33:38.387Z,6.30
2018-06-08T19:38:41.022Z,6.27
2018-06-08T19:43:43.698Z,5.60
2018-06-08T19:48:46.498Z,5.53
2018-06-08T19:53:49.138Z,5.27
2018-06-08T19:58:51.747Z,5.00
2018-06-08T20:03:54.391Z,5.43
2018-06-08T20:08:57.123Z,4.40
2018-06-08T20:14:00.559Z,4.70
2018-06-08T20:19:03.215Z,5.03
2018-06-08T20:24:06.135Z,4.43
2018-06-08T20:29:08.806Z,4.50
2018-06-08T20:34:12.113Z,4.23
2018-06-08T20:39:14.853Z,4.83
2018-06-08T20:44:17.601Z,6.63
2018-06-08T20:49:20.232Z,6.13
2018-06-08T20:54:22.886Z,6.87
2018-06-08T20:59:25.529Z,6.57
2018-06-08T21:04:28.138Z,6.87
2018-06-08T21:09:30.768Z,5.43
2018-06-08T21:14:33.972Z,5.23
2018-06-08T21:19:36.781Z,4.87
2018-06-08T21:24:39.394Z,4.80
2018-06-08T21:29:42.095Z,5.00
2018-06-08T21:34:44.711Z,6.50
2018-06-08T21:39:47.463Z,5.53
2018-06-08T21:44:50.187Z,5.30
2018-06-08T21:49:52.824Z,5.47
2018-06-08T21:54:55.458Z,5.50
2018-06-08T21:59:58.056Z,5.77
2018-06-08T22:05:00.688Z,5.80
2018-06-08T22:10:03.480Z,6.00
2018-06-08T22:15:06.087Z,6.67
2018-06-08T22:20:08.714Z,5.80
2018-06-08T22:25:11.431Z,5.83
2018-06-08T22:30:14.066Z,6.87
2018-06-08T22:35:16.647Z,6.13
2018-06-08T22:40:19.243Z,6.10
2018-06-08T22:45:21.852Z,6.40
2018-06-08T22:50:24.462Z,6.13
2018-06-08T22:55:27.082Z,6.50
2018-06-08T23:00:29.683Z,6.50
2018-06-08T23:05:32.487Z,6.63
2018-06-08T23:10:35.291Z,6.77
2018-06-08T23:15:37.918Z,6.77
2018-06-08T23:20:40.530Z,6.63
2018-06-08T23:25:43.194Z,5.97
2018-06-08T23:30:45.823Z,6.37
2018-06-08T23:35:48.442Z,5.97
2018-06-08T23:40:51.051Z,6.90
2018-06-08T23:45:53.716Z,6.73
2018-06-08T23:50:56.329Z,6.17
2018-06-08T23:55:58.951Z,6.67
